Time;durP1;ratioP1;P1;durP2;ratioP2;P2;SDS_P1;SDS_P2;PMS_P1;PMS_P2;Temp;Humidity;BMP_temperature;BMP_pressure;BME280_temperature;BME280_humidity;BME280_pressure;Samples;Min_cycle;Max_cycle;Signal;HPM_P1;HPM_P2
2021/05/08 00:01:45;;;;;;;7.10;4.17;;;7.70;99.90;;;;;;6195605;23;20181;-84
2021/05/08 00:04:14;;;;;;;4.03;3.10;;;7.70;99.90;;;;;;6223025;23;20196;-84
2021/05/08 00:06:40;;;;;;;4.80;3.55;;;7.70;99.90;;;;;;6222997;23;20145;-84
2021/05/08 00:09:08;;;;;;;4.00;3.20;;;7.60;99.90;;;;;;6168471;23;20288;-83
2021/05/08 00:11:35;;;;;;;4.05;3.65;;;7.60;99.90;;;;;;6218722;23;20231;-84
2021/05/08 00:14:01;;;;;;;5.43;3.30;;;7.60;99.90;;;;;;6217494;23;20205;-85
2021/05/08 00:16:29;;;;;;;3.95;3.47;;;7.60;99.90;;;;;;6167294;23;20157;-85
2021/05/08 00:19:04;;;;;;;4.97;2.92;;;7.60;99.90;;;;;;6192808;23;20160;-84
2021/05/08 00:21:32;;;;;;;8.05;3.95;;;7.60;99.90;;;;;;6218070;23;20208;-84
2021/05/08 00:24:00;;;;;;;6.65;3.50;;;7.50;99.90;;;;;;6192476;23;20227;-84
2021/05/08 00:26:27;;;;;;;4.13;2.95;;;7.50;99.90;;;;;;6192924;23;20168;-84
2021/05/08 00:28:53;;;;;;;3.80;3.35;;;7.60;99.90;;;;;;6168407;23;20247;-84
2021/05/08 00:31:19;;;;;;;4.63;3.53;;;7.60;99.90;;;;;;6218855;23;20161;-84
2021/05/08 00:33:45;;;;;;;5.00;3.40;;;7.70;99.90;;;;;;6219751;23;20204;-84
2021/05/08 00:36:10;;;;;;;5.60;3.33;;;7.70;99.90;;;;;;6194291;23;20390;-84
2021/05/08 00:38:36;;;;;;;3.77;2.73;;;7.60;99.90;;;;;;6195485;23;20156;-83
2021/05/08 00:41:02;;;;;;;4.20;3.43;;;7.50;99.90;;;;;;6173359;23;20667;-83
2021/05/08 00:43:30;;;;;;;3.50;2.93;;;7.50;99.90;;;;;;6173080;23;20149;-82
2021/05/08 00:45:56;;;;;;;3.35;2.95;;;7.60;99.90;;;;;;6225616;23;20426;-83
2021/05/08 00:48:21;;;;;;;3.47;2.87;;;7.70;99.90;;;;;;6226523;23;20165;-83
2021/05/08 00:50:50;;;;;;;5.63;3.10;;;7.70;99.90;;;;;;6198284;23;20388;-83
2021/05/08 00:53:15;;;;;;;4.05;2.97;;;7.70;99.90;;;;;;6196622;23;20156;-83
2021/05/08 00:55:41;;;;;;;4.70;3.50;;;7.70;99.90;;;;;;6222405;23;20168;-82
2021/05/08 00:58:09;;;;;;;14.63;3.07;;;7.70;99.90;;;;;;6196163;23;20161;-83
2021/05/08 01:00:35;;;;;;;4.68;3.60;;;7.70;99.90;;;;;;6223460;23;20742;-82
2021/05/08 01:03:01;;;;;;;7.53;3.72;;;7.70;99.90;;;;;;6223442;23;20149;-83
2021/05/08 01:05:31;;;;;;;4.30;3.00;;;7.60;99.90;;;;;;6223889;23;20152;-83
2021/05/08 01:08:03;;;;;;;4.78;3.20;;;7.70;99.90;;;;;;6195878;23;20411;-84
2021/05/08 01:10:29;;;;;;;3.30;2.55;;;7.70;99.90;;;;;;6194438;23;20175;-83
2021/05/08 01:13:02;;;;;;;3.30;2.97;;;7.70;99.90;;;;;;6194852;23;20149;-84
2021/05/08 01:15:28;;;;;;;3.17;2.85;;;7.70;99.90;;;;;;6221486;23;20141;-84
2021/05/08 01:17:54;;;;;;;4.45;3.50;;;7.70;99.90;;;;;;6220933;23;20163;-84
2021/05/08 01:20:21;;;;;;;2.85;2.40;;;7.60;99.90;;;;;;6221318;23;20161;-85
2021/05/08 01:22:49;;;;;;;3.53;2.90;;;7.30;99.90;;;;;;6195270;23;20231;-84
2021/05/08 01:25:22;;;;;;;3.88;3.25;;;7.00;99.90;;;;;;6193333;23;20485;-84
2021/05/08 01:27:52;;;;;;;4.60;3.85;;;7.00;99.90;;;;;;6217985;23;20172;-83
2021/05/08 01:30:21;;;;;;;5.22;3.38;;;7.20;99.90;;;;;;6193672;23;20179;-84
2021/05/08 01:32:47;;;;;;;4.35;3.40;;;7.10;99.90;;;;;;6222415;23;20157;-83
2021/05/08 01:35:13;;;;;;;6.30;3.60;;;7.10;99.90;;;;;;6196611;23;20157;-83
2021/05/08 01:37:39;;;;;;;3.97;3.57;;;7.20;99.90;;;;;;6223906;23;20220;-82
2021/05/08 01:40:10;;;;;;;4.75;3.63;;;7.10;99.90;;;;;;6192802;23;20864;-82
2021/05/08 01:42:37;;;;;;;3.40;2.97;;;7.20;99.90;;;;;;6218596;23;20133;-83
2021/05/08 01:45:09;;;;;;;5.22;3.20;;;7.10;99.90;;;;;;6191082;23;20149;-82
2021/05/08 01:47:34;;;;;;;3.55;3.13;;;7.10;99.90;;;;;;6217344;23;20490;-82
2021/05/08 01:50:00;;;;;;;5.93;3.33;;;7.10;99.90;;;;;;6219386;23;20145;-83
2021/05/08 01:52:26;;;;;;;7.70;4.10;;;7.00;99.90;;;;;;6194201;23;20149;-82
2021/05/08 01:54:51;;;;;;;6.20;3.13;;;7.20;99.90;;;;;;6193648;23;20172;-84
2021/05/08 01:57:17;;;;;;;4.90;2.87;;;7.20;99.90;;;;;;6216751;23;20199;-84
2021/05/08 01:59:45;;;;;;;3.57;2.63;;;7.20;99.90;;;;;;6191855;23;20161;-85
2021/05/08 02:02:11;;;;;;;3.35;2.92;;;7.30;99.90;;;;;;6192459;23;20180;-85
2021/05/08 02:04:36;;;;;;;4.47;2.90;;;7.40;99.90;;;;;;6218181;23;20153;-84
2021/05/08 02:07:02;;;;;;;4.80;3.50;;;7.40;99.90;;;;;;6191979;23;20640;-83
2021/05/08 02:09:27;;;;;;;3.70;2.90;;;7.40;99.90;;;;;;6191457;23;20192;-84
2021/05/08 02:11:53;;;;;;;4.30;3.20;;;7.40;99.90;;;;;;6191767;23;20498;-85
2021/05/08 02:14:18;;;;;;;4.07;2.90;;;7.50;99.90;;;;;;6219882;23;20153;-84
2021/05/08 02:16:44;;;;;;;3.50;2.90;;;7.40;99.90;;;;;;6193463;23;20141;-83
2021/05/08 02:19:09;;;;;;;4.27;3.50;;;7.40;99.90;;;;;;6194035;23;20163;-83
2021/05/08 02:21:35;;;;;;;5.70;3.53;;;7.40;99.90;;;;;;6193549;23;20227;-83
2021/05/08 02:24:01;;;;;;;9.00;3.57;;;7.30;99.90;;;;;;6219843;23;20177;-83
2021/05/08 02:26:26;;;;;;;3.37;2.60;;;7.20;99.90;;;;;;6192767;23;20162;-84
2021/05/08 02:28:52;;;;;;;5.20;3.43;;;7.30;99.90;;;;;;6193656;23;20255;-84
2021/05/08 02:31:17;;;;;;;6.33;3.87;;;7.30;99.90;;;;;;6193082;23;20172;-83
2021/05/08 02:33:43;;;;;;;3.50;3.20;;;7.40;99.90;;;;;;6193386;23;20244;-83
2021/05/08 02:36:08;;;;;;;4.90;3.00;;;7.40;99.90;;;;;;6144359;23;20153;-83
2021/05/08 02:38:34;;;;;;;4.70;3.40;;;7.40;99.90;;;;;;6193446;23;20149;-84
2021/05/08 02:40:59;;;;;;;3.13;2.80;;;7.40;99.90;;;;;;6220083;23;20247;-84
2021/05/08 02:43:25;;;;;;;5.17;3.47;;;7.40;99.90;;;;;;6194858;23;20156;-84
2021/05/08 02:45:50;;;;;;;4.73;3.60;;;7.40;99.90;;;;;;6221244;23;20666;-84
2021/05/08 02:48:16;;;;;;;3.53;3.10;;;7.30;99.90;;;;;;6194322;23;20177;-83
2021/05/08 02:50:42;;;;;;;4.07;3.33;;;7.20;99.90;;;;;;6194443;23;20165;-84
2021/05/08 02:53:07;;;;;;;4.50;3.70;;;7.10;99.90;;;;;;6193724;23;20228;-84
2021/05/08 02:55:33;;;;;;;3.60;2.90;;;7.00;99.90;;;;;;6168528;23;20161;-84
2021/05/08 02:58:02;;;;;;;4.80;3.30;;;7.00;99.90;;;;;;6195074;23;20149;-84
2021/05/08 03:00:28;;;;;;;4.82;4.00;;;7.00;99.90;;;;;;6222254;23;20168;-85
2021/05/08 03:02:57;;;;;;;3.47;3.17;;;7.00;99.90;;;;;;6218704;23;20198;-84
2021/05/08 03:05:22;;;;;;;7.00;3.78;;;7.00;99.90;;;;;;6219717;23;20598;-84
2021/05/08 03:07:48;;;;;;;4.50;3.23;;;7.00;99.90;;;;;;6192383;23;20179;-85
2021/05/08 03:10:13;;;;;;;5.20;3.73;;;6.90;99.90;;;;;;6219544;23;20141;-84
2021/05/08 03:12:39;;;;;;;5.17;3.80;;;6.90;99.90;;;;;;6192103;23;20647;-84
2021/05/08 03:15:06;;;;;;;4.10;3.40;;;6.90;99.90;;;;;;6192600;23;20598;-85
2021/05/08 03:17:31;;;;;;;13.70;3.60;;;6.90;99.90;;;;;;6193128;23;20157;-84
2021/05/08 03:19:57;;;;;;;5.03;3.63;;;6.90;99.90;;;;;;6194178;23;20164;-83
2021/05/08 03:22:22;;;;;;;4.23;3.83;;;6.90;99.90;;;;;;6219207;23;20156;-83
2021/05/08 03:24:48;;;;;;;7.93;5.00;;;6.90;99.90;;;;;;6193528;23;20223;-84
2021/05/08 03:27:14;;;;;;;4.60;3.80;;;6.90;99.90;;;;;;6193949;23;20149;-84
2021/05/08 03:29:40;;;;;;;6.37;4.40;;;6.90;99.90;;;;;;6194502;23;20187;-84
2021/05/08 03:32:05;;;;;;;4.05;3.47;;;6.90;99.90;;;;;;6220963;23;20172;-83
2021/05/08 03:34:31;;;;;;;4.80;3.60;;;6.90;99.90;;;;;;6194991;23;20160;-84
2021/05/08 03:36:57;;;;;;;5.30;3.90;;;6.80;99.90;;;;;;6196087;23;20149;-84
2021/05/08 03:39:22;;;;;;;4.83;3.60;;;6.80;99.90;;;;;;6195447;23;20221;-85
2021/05/08 03:41:48;;;;;;;8.50;4.13;;;6.80;99.90;;;;;;6160079;23;20161;-82
2021/05/08 03:44:14;;;;;;;4.37;3.37;;;6.80;99.90;;;;;;6227892;23;20156;-84
2021/05/08 03:46:39;;;;;;;8.03;4.60;;;6.80;99.90;;;;;;6174505;23;20153;-84
2021/05/08 03:49:05;;;;;;;8.90;4.67;;;6.80;99.90;;;;;;6198793;23;20176;-84
2021/05/08 03:51:30;;;;;;;4.60;3.67;;;6.80;99.90;;;;;;6149930;23;20177;-85
2021/05/08 03:53:57;;;;;;;6.00;3.97;;;6.80;99.90;;;;;;6195783;23;20160;-84
2021/05/08 03:56:23;;;;;;;4.40;3.85;;;6.80;99.90;;;;;;6219102;23;20148;-85
2021/05/08 03:58:49;;;;;;;4.20;3.20;;;6.90;99.90;;;;;;6192694;23;20157;-84
2021/05/08 04:01:14;;;;;;;4.07;3.33;;;6.90;99.90;;;;;;6193138;23;20168;-84
2021/05/08 04:03:40;;;;;;;7.73;4.27;;;6.90;99.90;;;;;;6220463;23;20460;-84
2021/05/08 04:06:06;;;;;;;4.50;3.53;;;6.90;99.90;;;;;;6196773;23;20380;-83
2021/05/08 04:08:31;;;;;;;4.97;3.93;;;6.90;99.90;;;;;;6224532;23;20187;-83
2021/05/08 04:10:57;;;;;;;6.73;4.60;;;6.90;99.90;;;;;;6170542;23;20177;-84
2021/05/08 04:13:23;;;;;;;8.45;3.88;;;6.90;99.90;;;;;;6191551;23;20215;-85
2021/05/08 04:15:48;;;;;;;5.87;4.10;;;7.00;99.90;;;;;;6166865;23;20149;-84
2021/05/08 04:18:14;;;;;;;5.30;4.27;;;7.00;99.90;;;;;;6192138;23;20153;-84
2021/05/08 04:20:40;;;;;;;8.27;5.27;;;7.00;99.90;;;;;;6191199;23;20234;-84
2021/05/08 04:23:06;;;;;;;8.30;4.50;;;7.00;99.90;;;;;;6219793;23;20164;-83
2021/05/08 04:25:32;;;;;;;8.20;4.30;;;7.00;99.90;;;;;;6197655;23;20224;-83
2021/05/08 04:27:57;;;;;;;4.63;3.77;;;7.00;99.90;;;;;;6220623;23;20168;-83
2021/05/08 04:30:23;;;;;;;6.23;3.80;;;7.10;99.90;;;;;;6220438;23;20176;-83
2021/05/08 04:32:49;;;;;;;5.55;4.00;;;7.10;99.90;;;;;;6218633;23;20161;-83
2021/05/08 04:35:16;;;;;;;7.38;4.03;;;7.10;99.90;;;;;;6219640;23;20149;-83
2021/05/08 04:37:45;;;;;;;7.03;4.15;;;7.10;99.90;;;;;;6221563;23;20156;-84
2021/05/08 04:40:11;;;;;;;4.63;3.25;;;7.20;99.90;;;;;;6219981;23;20510;-84
2021/05/08 04:42:37;;;;;;;4.10;3.70;;;7.30;99.90;;;;;;6192619;23;20161;-83
2021/05/08 04:45:04;;;;;;;4.53;3.47;;;7.30;99.90;;;;;;6167255;23;20184;-85
2021/05/08 04:47:29;;;;;;;5.88;3.75;;;7.50;99.90;;;;;;6219956;23;20145;-83
2021/05/08 04:49:58;;;;;;;4.63;3.40;;;7.60;99.90;;;;;;6219558;23;20144;-84
2021/05/08 04:52:24;;;;;;;6.75;3.92;;;7.60;99.90;;;;;;6220715;23;20522;-83
2021/05/08 04:54:50;;;;;;;5.15;3.60;;;7.70;99.90;;;;;;6219214;23;20613;-84
2021/05/08 04:57:15;;;;;;;3.10;2.80;;;7.80;99.90;;;;;;6218678;23;20204;-84
2021/05/08 04:59:41;;;;;;;6.20;4.63;;;8.00;99.90;;;;;;6191895;23;20603;-82
2021/05/08 05:02:06;;;;;;;5.47;3.67;;;8.00;99.90;;;;;;6191392;23;20603;-83
2021/05/08 05:04:32;;;;;;;5.50;3.77;;;8.10;99.90;;;;;;6167202;23;20665;-83
2021/05/08 05:06:57;;;;;;;6.00;4.30;;;8.20;99.90;;;;;;6166675;23;20633;-85
2021/05/08 05:09:23;;;;;;;5.63;3.70;;;8.20;99.90;;;;;;6191131;23;20207;-85
2021/05/08 05:11:49;;;;;;;3.97;2.50;;;8.30;99.90;;;;;;6166717;23;20196;-85
2021/05/08 05:14:15;;;;;;;5.90;3.05;;;8.20;99.90;;;;;;6192680;23;20187;-84
2021/05/08 05:16:41;;;;;;;13.50;3.33;;;8.30;99.90;;;;;;6143343;23;20153;-85
2021/05/08 05:19:06;;;;;;;5.27;3.20;;;8.30;99.90;;;;;;6193859;23;20149;-84
2021/05/08 05:21:32;;;;;;;5.20;2.90;;;8.10;99.90;;;;;;6192746;23;20179;-85
2021/05/08 05:23:57;;;;;;;5.63;3.30;;;7.90;99.90;;;;;;6196508;23;20168;-84
2021/05/08 05:26:25;;;;;;;3.47;3.13;;;8.10;99.90;;;;;;6194109;23;20244;-84
2021/05/08 05:28:51;;;;;;;4.45;2.95;;;8.40;99.90;;;;;;6218404;23;20626;-84
2021/05/08 05:31:18;;;;;;;3.90;3.47;;;8.70;99.90;;;;;;6191749;23;20175;-85
2021/05/08 05:33:44;;;;;;;4.80;2.63;;;8.90;99.90;;;;;;6218076;23;20160;-85
2021/05/08 05:36:12;;;;;;;7.37;2.70;;;8.90;99.90;;;;;;6218330;23;20179;-85
2021/05/08 05:38:43;;;;;;;5.38;2.58;;;8.80;99.90;;;;;;6192078;23;20161;-86
2021/05/08 05:41:12;;;;;;;4.88;3.40;;;9.20;99.90;;;;;;6218425;23;20169;-85
2021/05/08 05:43:38;;;;;;;5.35;2.65;;;9.60;99.90;;;;;;6144635;23;20164;-85
2021/05/08 05:46:03;;;;;;;2.83;2.60;;;10.00;99.90;;;;;;6222615;23;20157;-85
2021/05/08 05:48:29;;;;;;;7.13;3.37;;;10.00;99.90;;;;;;6224283;23;20172;-85
2021/05/08 05:50:54;;;;;;;3.00;2.70;;;9.90;99.90;;;;;;6221910;23;20172;-85
2021/05/08 05:53:20;;;;;;;4.90;3.33;;;10.00;99.90;;;;;;6222824;23;20252;-85
2021/05/08 05:55:45;;;;;;;3.63;2.70;;;9.80;99.90;;;;;;6195805;23;20153;-85
2021/05/08 05:58:11;;;;;;;3.40;2.70;;;9.60;99.90;;;;;;6219423;23;20149;-84
2021/05/08 06:00:37;;;;;;;3.43;2.57;;;9.50;99.90;;;;;;6221088;23;20172;-82
2021/05/08 06:03:02;;;;;;;4.10;2.50;;;9.60;99.90;;;;;;6221731;23;20177;-83
2021/05/08 06:05:28;;;;;;;6.80;3.00;;;9.70;99.90;;;;;;6197425;23;20168;-83
2021/05/08 06:07:53;;;;;;;5.67;2.97;;;9.70;99.90;;;;;;6194052;23;20171;-83
2021/05/08 06:10:19;;;;;;;3.80;2.87;;;9.90;99.90;;;;;;6220977;23;20165;-81
2021/05/08 06:12:44;;;;;;;4.10;2.57;;;9.90;99.90;;;;;;6168780;23;20602;-83
2021/05/08 06:15:11;;;;;;;4.50;3.03;;;10.00;99.90;;;;;;6194517;23;20175;-83
2021/05/08 06:17:37;;;;;;;5.30;2.80;;;10.00;99.90;;;;;;6198353;23;20154;-86
2021/05/08 06:20:04;;;;;;;2.33;1.93;;;10.50;99.90;;;;;;6200089;23;20156;-85
2021/05/08 06:22:30;;;;;;;3.45;2.92;;;11.00;99.90;;;;;;6198320;23;20825;-86
2021/05/08 06:24:55;;;;;;;3.00;2.33;;;11.20;99.90;;;;;;6227422;23;20148;-84
2021/05/08 06:27:22;;;;;;;2.80;2.60;;;11.00;99.90;;;;;;6200266;23;20379;-84
2021/05/08 06:29:48;;;;;;;4.95;2.85;;;10.50;99.90;;;;;;6198801;23;20184;-85
2021/05/08 06:32:14;;;;;;;8.17;2.87;;;10.40;99.90;;;;;;6195208;23;20173;-85
2021/05/08 06:34:40;;;;;;;4.50;2.60;;;10.60;99.90;;;;;;6172169;23;20164;-87
2021/05/08 06:37:09;;;;;;;5.40;2.40;;;10.30;99.90;;;;;;6197606;23;20141;-84
2021/05/08 06:39:34;;;;;;;4.97;2.58;;;10.70;99.90;;;;;;6224406;23;20156;-86
2021/05/08 06:42:00;;;;;;;5.30;2.60;;;11.10;99.90;;;;;;6222465;23;20507;-85
2021/05/08 06:44:29;;;;;;;4.60;1.87;;;11.00;99.90;;;;;;6222557;23;20698;-86
2021/05/08 06:46:56;;;;;;;4.05;2.30;;;11.40;99.90;;;;;;6196473;23;20441;-83
2021/05/08 06:49:25;;;;;;;5.47;2.20;;;11.90;99.90;;;;;;6195328;23;20176;-85
2021/05/08 06:51:50;;;;;;;4.22;2.30;;;12.30;99.90;;;;;;6193663;23;20522;-85
2021/05/08 06:54:19;;;;;;;6.20;2.10;;;12.30;99.90;;;;;;6222094;23;20255;-84
2021/05/08 06:56:45;;;;;;;4.75;2.40;;;12.50;99.90;;;;;;6223244;23;20516;-84
2021/05/08 06:59:13;;;;;;;2.20;2.00;;;12.60;99.90;;;;;;6223217;23;20171;-85
2021/05/08 07:01:42;;;;;;;3.95;2.28;;;12.40;99.90;;;;;;6223907;23;20398;-85
2021/05/08 07:04:15;;;;;;;3.00;2.33;;;12.20;99.90;;;;;;6224648;23;20184;-85
2021/05/08 07:06:47;;;;;;;3.00;2.08;;;11.90;99.90;;;;;;6198207;23;20137;-85
2021/05/08 07:09:21;;;;;;;8.75;2.88;;;11.80;99.90;;;;;;6224721;23;20629;-85
2021/05/08 07:11:50;;;;;;;3.78;2.10;;;11.90;99.90;;;;;;6172697;23;20182;-87
2021/05/08 07:14:18;;;;;;;3.92;1.90;;;12.20;99.90;;;;;;6194698;23;20233;-85
2021/05/08 07:16:44;;;;;;;5.30;2.05;;;12.30;99.90;;;;;;6221260;23;20140;-84
2021/05/08 07:27:24;;;;;;;;;;;;;;;;;;;;;
2021/05/08 07:30:48;;;;;;;5.03;2.17;;;12.80;99.90;;;;;;6018218;23;20287;-88
2021/05/08 07:33:24;;;;;;;4.43;2.13;;;12.50;99.90;;;;;;6047165;23;20173;-86
2021/05/08 07:36:28;;;;;;;4.70;2.10;;;11.70;99.90;;;;;;6043297;23;20270;-87
2021/05/08 07:39:27;;;;;;;;;;;;;;;;;;;;;
2021/05/08 07:42:05;;;;;;;2.92;2.00;;;11.90;99.90;;;;;;6218276;23;20204;-88
2021/05/08 07:45:33;;;;;;;;;;;;;;;;;;;;;
2021/05/08 07:48:04;;;;;;;2.95;2.10;;;11.80;99.90;;;;;;6194532;23;20243;-89
2021/05/08 07:50:57;;;;;;;4.82;1.90;;;12.20;99.90;;;;;;6193477;23;20196;-89
2021/05/08 07:53:54;;;;;;;4.20;1.73;;;12.30;99.90;;;;;;6193959;23;20227;-87
2021/05/08 07:56:52;;;;;;;2.00;1.55;;;12.20;99.90;;;;;;6199993;23;20149;-89
2021/05/08 07:59:49;;;;;;;4.13;1.88;;;12.10;99.90;;;;;;6220673;23;20156;-88
2021/05/08 08:02:38;;;;;;;6.78;2.42;;;12.50;99.90;;;;;;6199949;23;20176;-88
2021/05/08 08:05:07;;;;;;;3.17;1.75;;;12.40;99.90;;;;;;6219293;23;20533;-88
2021/05/08 08:07:33;;;;;;;2.00;1.73;;;12.20;99.90;;;;;;6221326;23;20179;-88
2021/05/08 08:09:59;;;;;;;2.80;2.40;;;12.30;99.90;;;;;;6196625;23;20503;-88
2021/05/08 08:12:25;;;;;;;4.33;2.20;;;12.50;99.90;;;;;;6196557;23;20152;-89
2021/05/08 08:14:53;;;;;;;2.90;2.17;;;12.30;99.90;;;;;;6219509;23;20384;-90
2021/05/08 08:17:19;;;;;;;3.55;2.30;;;11.90;99.90;;;;;;6169732;23;20411;-88
2021/05/08 08:19:48;;;;;;;4.37;2.57;;;11.70;99.90;;;;;;6193825;23;20145;-89
2021/05/08 08:22:14;;;;;;;5.68;3.05;;;11.50;99.90;;;;;;6170022;23;20408;-88
2021/05/08 08:24:40;;;;;;;4.43;3.35;;;11.50;99.90;;;;;;6221520;23;20201;-86
2021/05/08 08:27:06;;;;;;;4.20;2.70;;;11.60;99.90;;;;;;6221276;23;20137;-86
2021/05/08 08:29:32;;;;;;;4.95;2.33;;;11.70;99.90;;;;;;6225079;23;20169;-87
2021/05/08 08:32:00;;;;;;;2.67;2.37;;;11.60;99.90;;;;;;6210230;23;20299;-89
2021/05/08 08:34:42;;;;;;;3.90;2.95;;;11.80;99.90;;;;;;6211934;23;20125;-89
2021/05/08 08:37:17;;;;;;;5.47;3.85;;;12.00;99.90;;;;;;6195699;23;20219;-90
2021/05/08 08:39:52;;;;;;;4.35;2.22;;;11.90;99.90;;;;;;6195383;23;20247;-88
2021/05/08 08:43:02;;;;;;;9.57;2.58;;;11.70;99.90;;;;;;6230131;23;20195;-89
2021/05/08 08:45:28;;;;;;;2.92;2.45;;;11.70;99.90;;;;;;6226947;23;20148;-88
2021/05/08 08:48:10;;;;;;;;;;;;;;;;;;;;;
2021/05/08 08:50:39;;;;;;;3.90;2.55;;;11.70;99.90;;;;;;6227256;23;20412;-88
2021/05/08 08:53:08;;;;;;;4.32;2.72;;;12.00;99.20;;;;;;6198310;23;20208;-88
2021/05/08 08:55:40;;;;;;;6.00;2.60;;;12.10;98.20;;;;;;6195329;23;20149;-89
2021/05/08 08:58:19;;;;;;;4.13;2.58;;;12.20;98.40;;;;;;6198010;23;20137;-89
2021/05/08 09:00:58;;;;;;;4.72;2.65;;;12.00;98.10;;;;;;6199069;23;20172;-88
2021/05/08 09:03:34;;;;;;;3.75;2.53;;;11.90;98.70;;;;;;6173588;23;20160;-88
2021/05/08 09:06:00;;;;;;;3.38;2.90;;;11.90;98.60;;;;;;6195876;23;20137;-87
2021/05/08 09:08:29;;;;;;;3.30;2.58;;;12.00;99.40;;;;;;6196504;23;20196;-86
2021/05/08 09:11:46;;;;;;;4.40;2.97;;;12.30;99.50;;;;;;6225228;23;20266;-87
2021/05/08 09:14:25;;;;;;;4.45;3.30;;;12.20;98.30;;;;;;6193451;23;20490;-88
2021/05/08 09:17:10;;;;;;;3.75;3.17;;;12.30;99.30;;;;;;6206449;23;20167;-86
2021/05/08 09:20:01;;;;;;;8.05;3.90;;;12.20;97.80;;;;;;6210100;23;20160;-87
2021/05/08 09:28:38;;;;;;;4.60;3.08;;;13.40;98.20;;;;;;6202996;23;20211;-88
2021/05/08 09:31:05;;;;;;;3.65;2.80;;;12.80;94.90;;;;;;6181438;23;20157;-90
2021/05/08 09:33:32;;;;;;;3.25;2.50;;;12.70;95.90;;;;;;6180679;23;20607;-90
2021/05/08 09:36:07;;;;;;;3.75;2.53;;;12.70;94.00;;;;;;6179225;23;20153;-87
2021/05/08 09:39:24;;;;;;;3.40;3.03;;;12.60;93.40;;;;;;6175497;23;20216;-87
2021/05/08 09:41:50;;;;;;;5.05;4.03;;;12.40;92.80;;;;;;6196992;23;20173;-88
2021/05/08 09:44:16;;;;;;;3.97;3.37;;;12.40;94.20;;;;;;6165385;23;20157;-88
2021/05/08 09:46:41;;;;;;;3.83;3.17;;;12.60;94.30;;;;;;6164430;23;20166;-87
2021/05/08 09:49:15;;;;;;;4.17;2.90;;;12.80;94.40;;;;;;6165997;23;20177;-89
2021/05/08 09:51:41;;;;;;;3.70;2.65;;;13.00;90.60;;;;;;6167414;23;20276;-88
2021/05/08 09:54:09;;;;;;;5.43;3.37;;;13.20;90.50;;;;;;6168130;23;20176;-89
2021/05/08 09:56:48;;;;;;;4.50;3.22;;;13.30;90.30;;;;;;6167630;23;20376;-88
2021/05/08 09:59:27;;;;;;;4.10;3.65;;;13.50;91.00;;;;;;6164753;23;20157;-87
2021/05/08 10:02:18;;;;;;;4.00;3.13;;;13.60;88.70;;;;;;6164824;23;20177;-88
2021/05/08 10:04:46;;;;;;;4.32;2.95;;;13.40;85.60;;;;;;6164034;23;20148;-87
2021/05/08 10:07:13;;;;;;;5.32;3.10;;;13.00;87.70;;;;;;6191894;23;20146;-89
2021/05/08 10:09:41;;;;;;;5.93;3.10;;;12.80;85.10;;;;;;6168628;23;20184;-88
2021/05/08 10:12:11;;;;;;;4.70;3.15;;;12.90;84.80;;;;;;6164496;23;20161;-88
2021/05/08 10:14:39;;;;;;;4.95;4.20;;;12.90;85.90;;;;;;6193835;23;20567;-87
2021/05/08 10:17:06;;;;;;;4.13;3.60;;;13.00;88.90;;;;;;6165009;23;20180;-88
2021/05/08 10:19:32;;;;;;;7.15;3.63;;;13.20;87.90;;;;;;6165165;23;20158;-88
2021/05/08 10:22:01;;;;;;;5.78;3.30;;;13.30;89.40;;;;;;6164981;23;20174;-87
2021/05/08 10:24:33;;;;;;;3.63;3.00;;;13.50;89.80;;;;;;6166451;23;20157;-87
2021/05/08 10:26:59;;;;;;;3.40;3.10;;;13.60;84.90;;;;;;6192306;23;20149;-89
2021/05/08 10:29:45;;;;;;;3.10;2.78;;;13.70;84.50;;;;;;6163058;23;20185;-88
2021/05/08 10:32:17;;;;;;;3.88;3.00;;;13.80;79.50;;;;;;6167529;23;20225;-88
2021/05/08 10:34:58;;;;;;;4.82;3.45;;;13.70;77.50;;;;;;6169749;23;20146;-88
2021/05/08 10:37:32;;;;;;;6.53;2.97;;;14.60;99.90;;;;;;6170325;23;20153;-88
2021/05/08 10:43:07;;;;;;;3.72;2.90;;;15.60;99.90;;;;;;6223360;23;20209;-89
2021/05/08 10:45:38;;;;;;;177.65;88.88;;;15.60;83.20;;;;;;6225175;23;20150;-86
2021/05/08 10:48:06;;;;;;;10.30;5.10;;;15.40;86.30;;;;;;6226245;23;20190;-87
2021/05/08 10:50:56;;;;;;;3.43;2.90;;;15.60;90.70;;;;;;6222774;23;20425;-87
2021/05/08 10:54:11;;;;;;;4.60;2.97;;;15.10;77.10;;;;;;6194490;23;20416;-88
2021/05/08 10:57:32;;;;;;;4.43;2.90;;;15.50;76.40;;;;;;6218028;23;20881;-87
2021/05/08 11:00:04;;;;;;;5.03;2.33;;;15.50;76.00;;;;;;6226823;23;20444;-85
2021/05/08 11:02:44;;;;;;;3.33;3.00;;;15.20;70.40;;;;;;6234605;23;20372;-85
2021/05/08 11:05:27;;;;;;;3.58;2.70;;;14.80;68.20;;;;;;6202410;23;20382;-85
2021/05/08 11:07:53;;;;;;;12.15;3.08;;;14.60;69.00;;;;;;6211261;23;20150;-88
2021/05/08 11:10:35;;;;;;;3.78;2.70;;;14.50;66.30;;;;;;6234570;23;20173;-87
2021/05/08 11:13:17;;;;;;;6.35;2.92;;;14.70;67.10;;;;;;6225994;23;20140;-84
2021/05/08 11:18:30;;;;;;;3.95;3.05;;;15.00;63.90;;;;;;6227394;23;20153;-86
2021/05/08 11:21:03;;;;;;;412.08;231.18;;;14.90;66.30;;;;;;6202192;23;20198;-87
2021/05/08 11:23:44;;;;;;;17.27;9.15;;;15.00;67.10;;;;;;6201794;23;20142;-84
2021/05/08 11:26:23;;;;;;;14.80;9.43;;;15.10;63.90;;;;;;6225372;23;20191;-85
2021/05/08 11:29:28;;;;;;;8.17;4.10;;;15.20;68.10;;;;;;6201760;23;20422;-85
2021/05/08 11:32:01;;;;;;;14.30;9.87;;;14.90;65.10;;;;;;6226692;23;20389;-87
2021/05/08 11:34:57;;;;;;;7.53;3.13;;;14.80;76.20;;;;;;6224858;23;20378;-87
2021/05/08 11:37:44;;;;;;;7.20;3.90;;;14.60;62.90;;;;;;6207200;23;20385;-87
2021/05/08 11:40:28;;;;;;;5.65;4.25;;;14.70;65.70;;;;;;6197877;23;20146;-87
2021/05/08 11:42:54;;;;;;;29.85;15.88;;;14.80;73.00;;;;;;6228418;23;20165;-84
2021/05/08 11:45:21;;;;;;;5.33;3.40;;;15.70;75.20;;;;;;6226745;23;20159;-86
2021/05/08 11:47:47;;;;;;;4.43;3.57;;;15.10;63.80;;;;;;6199254;23;20151;-85
2021/05/08 11:50:14;;;;;;;6.13;4.37;;;14.80;71.00;;;;;;6225931;23;20388;-85
2021/05/08 11:52:57;;;;;;;4.17;2.90;;;15.10;73.90;;;;;;6227998;23;20570;-84
2021/05/08 11:55:24;;;;;;;6.10;3.03;;;14.40;62.20;;;;;;6181040;23;20368;-85
2021/05/08 11:57:59;;;;;;;4.85;3.00;;;14.40;71.40;;;;;;6229183;23;20144;-84
2021/05/08 12:00:26;;;;;;;3.42;2.65;;;14.50;66.60;;;;;;6191794;23;20171;-84
2021/05/08 12:03:15;;;;;;;5.97;3.00;;;14.30;64.20;;;;;;6192413;23;20153;-81
2021/05/08 12:05:42;;;;;;;5.25;3.65;;;14.20;63.30;;;;;;6215955;23;20141;-83
2021/05/08 12:08:09;;;;;;;4.63;2.85;;;14.40;65.20;;;;;;6217813;23;20173;-81
2021/05/08 12:10:37;;;;;;;3.25;2.50;;;14.50;64.80;;;;;;6217386;23;20272;-82
2021/05/08 12:13:07;;;;;;;2.97;2.67;;;14.50;63.90;;;;;;6217396;23;20224;-83
2021/05/08 12:15:38;;;;;;;3.05;2.75;;;14.50;62.90;;;;;;6219130;23;20206;-83
2021/05/08 12:18:13;;;;;;;6.32;2.85;;;14.20;62.80;;;;;;6217205;23;20152;-83
2021/05/08 12:20:53;;;;;;;7.93;3.35;;;14.00;65.00;;;;;;6219053;23;20510;-82
2021/05/08 12:23:20;;;;;;;4.05;3.15;;;14.40;67.40;;;;;;6191406;23;20141;-84
2021/05/08 12:26:05;;;;;;;3.77;3.43;;;14.50;67.50;;;;;;6191264;23;20161;-82
2021/05/08 12:28:31;;;;;;;7.35;3.30;;;14.70;63.80;;;;;;6218232;23;20420;-84
2021/05/08 12:30:57;;;;;;;3.13;2.83;;;14.70;63.40;;;;;;6218870;23;20811;-82
2021/05/08 12:33:24;;;;;;;4.00;3.23;;;14.70;62.00;;;;;;6191498;23;20147;-83
2021/05/08 12:35:51;;;;;;;4.20;2.65;;;14.60;61.90;;;;;;6192377;23;20154;-84
2021/05/08 12:38:17;;;;;;;3.53;2.90;;;14.40;60.70;;;;;;6218346;23;20145;-83
2021/05/08 12:40:46;;;;;;;3.10;2.63;;;14.00;61.50;;;;;;6194332;23;20220;-84
2021/05/08 12:43:32;;;;;;;2.75;2.53;;;14.10;63.80;;;;;;6166375;23;20177;-83
2021/05/08 12:46:11;;;;;;;3.28;2.85;;;14.30;64.40;;;;;;6175427;23;20164;-82
2021/05/08 12:48:43;;;;;;;4.35;3.10;;;14.00;61.90;;;;;;6215467;23;20618;-83
2021/05/08 12:51:29;;;;;;;3.05;2.45;;;14.00;62.00;;;;;;6218097;23;20490;-84
2021/05/08 12:54:21;;;;;;;3.03;2.70;;;14.00;63.60;;;;;;6218285;23;20150;-84
2021/05/08 12:56:47;;;;;;;3.88;2.92;;;14.20;63.20;;;;;;6217730;23;20598;-83
2021/05/08 12:59:24;;;;;;;3.60;3.30;;;14.20;61.20;;;;;;6193008;23;20155;-82
2021/05/08 13:02:06;;;;;;;3.83;2.80;;;14.20;60.30;;;;;;6191960;23;20172;-83
2021/05/08 13:04:45;;;;;;;4.15;2.97;;;14.40;60.90;;;;;;6193347;23;20151;-82
2021/05/08 13:07:30;;;;;;;3.03;2.65;;;14.80;63.00;;;;;;6222139;23;20126;-83
2021/05/08 13:10:17;;;;;;;2.58;2.35;;;15.00;62.20;;;;;;6229394;23;20146;-84
2021/05/08 13:12:47;;;;;;;4.20;2.20;;;15.30;59.90;;;;;;6226533;23;20196;-83
2021/05/08 13:15:15;;;;;;;3.03;2.73;;;15.30;57.50;;;;;;6220453;23;20369;-84
2021/05/08 13:17:42;;;;;;;3.70;2.83;;;15.30;57.70;;;;;;6219670;23;20375;-83
2021/05/08 13:20:09;;;;;;;3.17;2.50;;;15.50;57.80;;;;;;6191419;23;20851;-84
2021/05/08 13:22:38;;;;;;;3.30;3.00;;;15.30;56.40;;;;;;6167355;23;20472;-84
2021/05/08 13:25:06;;;;;;;4.82;4.43;;;15.20;55.40;;;;;;6193073;23;20385;-83
2021/05/08 13:27:32;;;;;;;3.23;2.97;;;15.00;55.60;;;;;;6217783;23;20189;-82
2021/05/08 13:29:58;;;;;;;4.00;2.63;;;15.10;55.90;;;;;;6217870;23;20422;-84
2021/05/08 13:32:23;;;;;;;6.70;4.90;;;15.20;56.20;;;;;;6215746;23;20153;-83
2021/05/08 13:34:49;;;;;;;4.30;3.00;;;15.30;55.80;;;;;;6190709;23;20414;-83